Forside
METAR-TAF:

METAR-TAF

Lufthavne :

Obihiro, Japan

Breddekreds: 42-44N, længdekreds: 143-13E, højde: 149 m

Aktuelle vejr

Denne rapport blev lavet for 1 time og 7 minutter siden, kl. 08:00 UTC
Vind 7 kt fra syd
Temperatur -6°C
Fugtighed 58%
Tryk 1018 hPa
Sigt 10 km eller mere
Nogle få skyer i en højde af 4000 ft

METAR: RJCB 270800Z 17007KT 9999 FEW040 M06/M13 Q1018

Tid: 18:07 (09:07 UTC)

Vejrudsigter

Denne rapport blev lavet for 3 timer og 59 minutter siden, kl. 05:08 UTC
Foreløbig gælder fra 27 på 06 UTC til 28 på 12 UTC
Vind 5 kt fra sydsydøst
Sigt 10 km eller mere
Nogle få skyer i en højde af 4000 ft
ændring
fra 27 på 10 UTC til 27 på 12 UTC
Vind 5 kt fra nordnordvest
ændring
fra 28 på 03 UTC til 28 på 06 UTC
Vind 5 kt fra sydsydøst
ændring
fra 28 på 09 UTC til 28 på 12 UTC
Vind 6 kt fra nord

TAF: RJCB 270508Z 2706/2812 15005KT 9999 FEW040 BECMG 2710/2712 33005KT BECMG 2803/2806 16005KT BECMG 2809/2812 36006KT

Vejrobservationer og prognoser fra mere end 4000 lufthavne (METAR og TAF).

De gule og røde prikker repræsenterer de meteorologiske stationer.

Flyt musen over at se navnet på stationen.

Så klik over at se vejr observationer og prognoser.

At skifte det kort: Klik på de grønne knapper med et sort kors for at zoome ind; på den grønne knap med en bindestreg for at zoome ud; eller på de grønne pile for tilstødende kort.


METAR-TAF: